Harrell Field


Codes: KCDH/CDH
Name: Harrell Field
City: Camden
Country: United States
Elevation: 130 ft.
Wikipedia:

Photos at Harrell Field


   Photos courtesy of SpottingLog. You can add your own sightings and photos by signing up for a free trial today.



No photos found.

Weather at Harrell Field


Time (UTC)DescriptionTempratureWindCloud coverageVisibilityPressureHumidity
13-Jun-2024 03:00Clear Sky23°C4 mph, SE0%10000m1014hPa78%
13-Jun-2024 06:00Clear Sky21°C2 mph, SE0%10000m1014hPa77%
13-Jun-2024 09:00Clear Sky19°C0 mph, NE0%10000m1013hPa78%
13-Jun-2024 12:00Clear Sky17°C2 mph, NE0%10000m1015hPa80%
13-Jun-2024 15:00Clear Sky26°C2 mph, E0%10000m1016hPa49%
13-Jun-2024 18:00Clear Sky32°C2 mph, E0%10000m1015hPa33%
13-Jun-2024 21:00Clear Sky34°C2 mph, SE0%10000m1013hPa30%
14-Jun-2024 00:00Clear Sky29°C2 mph, S0%10000m1013hPa54%
14-Jun-2024 03:00Clear Sky22°C4 mph, SE0%10000m1014hPa66%
14-Jun-2024 06:00Clear Sky20°C4 mph, S0%10000m1014hPa73%
14-Jun-2024 09:00Clear Sky18°C2 mph, W0%10000m1014hPa76%
14-Jun-2024 12:00Clear Sky19°C2 mph, N2%10000m1016hPa78%
14-Jun-2024 15:00Clear Sky28°C2 mph, SE2%10000m1016hPa49%
14-Jun-2024 18:00Clear Sky34°C2 mph, SE2%10000m1014hPa34%
14-Jun-2024 21:00Clear Sky36°C2 mph, SE1%10000m1013hPa29%
15-Jun-2024 00:00Clear Sky31°C4 mph, S4%10000m1012hPa52%
15-Jun-2024 03:00Few Clouds25°C4 mph, SE11%10000m1013hPa63%
15-Jun-2024 06:00Clear Sky23°C4 mph, S6%10000m1014hPa72%
15-Jun-2024 09:00Clear Sky21°C0 mph, SW0%10000m1013hPa75%
15-Jun-2024 12:00Clear Sky21°C2 mph, SW0%10000m1014hPa80%
15-Jun-2024 15:00Clear Sky30°C2 mph, SE0%10000m1015hPa51%
15-Jun-2024 18:00Clear Sky35°C4 mph, S0%10000m1013hPa34%
15-Jun-2024 21:00Clear Sky36°C4 mph, S2%10000m1011hPa32%
16-Jun-2024 00:00Clear Sky32°C4 mph, SE3%10000m1010hPa55%
16-Jun-2024 03:00Clear Sky26°C7 mph, SE0%10000m1011hPa70%
16-Jun-2024 06:00Clear Sky24°C4 mph, S0%10000m1012hPa73%
16-Jun-2024 09:00Clear Sky24°C4 mph, SW3%10000m1012hPa77%
16-Jun-2024 12:00Clear Sky24°C4 mph, SW1%10000m1013hPa85%
16-Jun-2024 15:00Clear Sky31°C4 mph, S4%10000m1014hPa55%
16-Jun-2024 18:00Clear Sky35°C9 mph, S2%10000m1013hPa40%
16-Jun-2024 21:00Clear Sky37°C9 mph, S0%10000m1011hPa29%
17-Jun-2024 00:00Few Clouds32°C9 mph, SE14%10000m1011hPa52%
17-Jun-2024 03:00Scattered Clouds26°C4 mph, S31%10000m1013hPa75%
17-Jun-2024 06:00Broken Clouds23°C4 mph, S53%10000m1013hPa86%
17-Jun-2024 09:00Scattered Clouds22°C4 mph, S42%10000m1014hPa93%
17-Jun-2024 12:00Broken Clouds23°C2 mph, SE56%10000m1015hPa92%
17-Jun-2024 15:00Overcast Clouds29°C7 mph, S88%10000m1015hPa62%
17-Jun-2024 18:00Broken Clouds34°C9 mph, S66%10000m1014hPa41%
17-Jun-2024 21:00Broken Clouds30°C4 mph, SE77%10000m1013hPa63%
18-Jun-2024 00:00Broken Clouds29°C4 mph, S82%10000m1012hPa72%